Terminal Aerodrome Forecast
Issued by NWS Detroit/Pontiac, MI

Home | Current Version | Previous Version | Text Only | Print | Product List | Glossary On
Versions: 1 2 3 4 5 6 7 8 9 10 11 12 13 14 15 16
131
FTUS43 KDTX 201946 AAA
TAFFNT
TAF AMD
KFNT 201946Z 2020/2118 13010KT P6SM BKN250
     FM210600 14012KT P6SM OVC150
     FM211200 18010KT P6SM OVC035
     FM211500 20010KT 3SM -RA BR OVC015=

USA.gov is the U.S. government's official web portal to all federal, state and local government web resources and services.